sensor_id;sensor_type;location;lat;lon;timestamp;temperature;humidity
8043;DHT22;4064;48.132;11.366;2022-12-18T00:00:57;-4.40;99.90
8043;DHT22;4064;48.132;11.366;2022-12-18T00:03:23;-4.30;99.90
8043;DHT22;4064;48.132;11.366;2022-12-18T00:05:49;-4.30;99.90
8043;DHT22;4064;48.132;11.366;2022-12-18T00:08:16;-4.30;99.90
8043;DHT22;4064;48.132;11.366;2022-12-18T00:10:42;-4.40;99.90
8043;DHT22;4064;48.132;11.366;2022-12-18T00:13:07;-4.40;99.90
8043;DHT22;4064;48.132;11.366;2022-12-18T00:15:34;-4.40;99.90
8043;DHT22;4064;48.132;11.366;2022-12-18T00:18:00;-4.40;99.90
8043;DHT22;4064;48.132;11.366;2022-12-18T00:20:26;-4.50;99.90
8043;DHT22;4064;48.132;11.366;2022-12-18T00:22:52;-4.40;99.90
8043;DHT22;4064;48.132;11.366;2022-12-18T00:25:18;-4.40;99.90
8043;DHT22;4064;48.132;11.366;2022-12-18T00:27:44;-4.40;99.90
8043;DHT22;4064;48.132;11.366;2022-12-18T00:30:10;-4.40;99.90
8043;DHT22;4064;48.132;11.366;2022-12-18T00:32:35;-4.40;99.90
8043;DHT22;4064;48.132;11.366;2022-12-18T00:35:01;-4.30;99.90
8043;DHT22;4064;48.132;11.366;2022-12-18T00:37:27;-4.40;99.90
8043;DHT22;4064;48.132;11.366;2022-12-18T00:39:52;-4.40;99.90
8043;DHT22;4064;48.132;11.366;2022-12-18T00:42:18;-4.20;99.90
8043;DHT22;4064;48.132;11.366;2022-12-18T00:45:02;-4.30;99.90
8043;DHT22;4064;48.132;11.366;2022-12-18T00:47:28;-4.20;99.90
8043;DHT22;4064;48.132;11.366;2022-12-18T00:49:54;-4.20;99.90
8043;DHT22;4064;48.132;11.366;2022-12-18T00:52:19;-4.20;99.90
8043;DHT22;4064;48.132;11.366;2022-12-18T00:54:45;-4.20;99.90
8043;DHT22;4064;48.132;11.366;2022-12-18T00:57:10;-4.20;99.90
8043;DHT22;4064;48.132;11.366;2022-12-18T00:59:36;-4.10;99.90
8043;DHT22;4064;48.132;11.366;2022-12-18T01:02:02;-4.10;99.90
8043;DHT22;4064;48.132;11.366;2022-12-18T01:04:27;-4.20;99.90
8043;DHT22;4064;48.132;11.366;2022-12-18T01:06:53;-4.20;99.90
8043;DHT22;4064;48.132;11.366;2022-12-18T01:09:19;-4.20;99.90
8043;DHT22;4064;48.132;11.366;2022-12-18T01:11:45;-4.20;99.90
8043;DHT22;4064;48.132;11.366;2022-12-18T01:14:10;-4.20;99.90
8043;DHT22;4064;48.132;11.366;2022-12-18T01:16:36;-4.10;99.90
8043;DHT22;4064;48.132;11.366;2022-12-18T01:19:01;-4.10;99.90
8043;DHT22;4064;48.132;11.366;2022-12-18T01:21:27;-4.20;99.90
8043;DHT22;4064;48.132;11.366;2022-12-18T01:23:54;-4.20;99.90
8043;DHT22;4064;48.132;11.366;2022-12-18T01:26:21;-4.20;99.90
8043;DHT22;4064;48.132;11.366;2022-12-18T01:28:47;-4.20;99.90
8043;DHT22;4064;48.132;11.366;2022-12-18T01:33:46;-4.30;99.90
8043;DHT22;4064;48.132;11.366;2022-12-18T01:36:16;-4.30;99.90
8043;DHT22;4064;48.132;11.366;2022-12-18T01:38:42;-4.20;99.90
8043;DHT22;4064;48.132;11.366;2022-12-18T01:41:08;-4.10;99.90
8043;DHT22;4064;48.132;11.366;2022-12-18T01:46:07;-4.20;99.90
8043;DHT22;4064;48.132;11.366;2022-12-18T01:48:32;-4.20;99.90
8043;DHT22;4064;48.132;11.366;2022-12-18T01:50:58;-4.20;99.90
8043;DHT22;4064;48.132;11.366;2022-12-18T01:53:25;-4.10;99.90
8043;DHT22;4064;48.132;11.366;2022-12-18T01:55:56;-4.10;99.90
8043;DHT22;4064;48.132;11.366;2022-12-18T01:58:29;-4.10;99.90
8043;DHT22;4064;48.132;11.366;2022-12-18T02:00:57;-4.20;99.90
8043;DHT22;4064;48.132;11.366;2022-12-18T02:03:23;-4.30;99.90
8043;DHT22;4064;48.132;11.366;2022-12-18T02:08:56;-4.30;99.90
8043;DHT22;4064;48.132;11.366;2022-12-18T02:14:22;-4.30;99.90
8043;DHT22;4064;48.132;11.366;2022-12-18T02:19:44;-4.30;99.90
8043;DHT22;4064;48.132;11.366;2022-12-18T02:27:32;-4.30;99.90
8043;DHT22;4064;48.132;11.366;2022-12-18T02:30:02;-4.40;99.90
8043;DHT22;4064;48.132;11.366;2022-12-18T02:32:32;-4.30;99.90
8043;DHT22;4064;48.132;11.366;2022-12-18T02:35:01;-4.30;99.90
8043;DHT22;4064;48.132;11.366;2022-12-18T02:37:28;-4.30;99.90
8043;DHT22;4064;48.132;11.366;2022-12-18T02:39:57;-4.30;99.90
8043;DHT22;4064;48.132;11.366;2022-12-18T02:42:24;-4.40;99.90
8043;DHT22;4064;48.132;11.366;2022-12-18T02:44:51;-4.50;99.90
8043;DHT22;4064;48.132;11.366;2022-12-18T02:47:19;-4.40;99.90
8043;DHT22;4064;48.132;11.366;2022-12-18T02:58:27;-4.50;99.90
8043;DHT22;4064;48.132;11.366;2022-12-18T03:01:21;-4.50;99.90
8043;DHT22;4064;48.132;11.366;2022-12-18T03:04:01;-4.50;99.90
8043;DHT22;4064;48.132;11.366;2022-12-18T03:06:32;-4.50;99.90
8043;DHT22;4064;48.132;11.366;2022-12-18T03:09:06;-4.60;99.90
8043;DHT22;4064;48.132;11.366;2022-12-18T03:11:34;-4.60;99.90
8043;DHT22;4064;48.132;11.366;2022-12-18T03:14:22;-4.60;99.90
8043;DHT22;4064;48.132;11.366;2022-12-18T03:16:52;-4.60;99.90
8043;DHT22;4064;48.132;11.366;2022-12-18T03:19:22;-4.70;99.90
8043;DHT22;4064;48.132;11.366;2022-12-18T03:21:54;-4.70;99.90
8043;DHT22;4064;48.132;11.366;2022-12-18T03:24:21;-4.80;99.90
8043;DHT22;4064;48.132;11.366;2022-12-18T03:26:51;-4.80;99.90
8043;DHT22;4064;48.132;11.366;2022-12-18T03:29:39;-4.80;99.90
8043;DHT22;4064;48.132;11.366;2022-12-18T03:32:18;-4.80;99.90
8043;DHT22;4064;48.132;11.366;2022-12-18T03:34:49;-4.80;99.90
8043;DHT22;4064;48.132;11.366;2022-12-18T03:37:16;-4.70;99.90
8043;DHT22;4064;48.132;11.366;2022-12-18T03:39:41;-4.70;99.90
8043;DHT22;4064;48.132;11.366;2022-12-18T03:42:28;-4.70;99.90
8043;DHT22;4064;48.132;11.366;2022-12-18T03:48:06;-4.80;99.90
8043;DHT22;4064;48.132;11.366;2022-12-18T03:50:37;-4.90;99.90
8043;DHT22;4064;48.132;11.366;2022-12-18T03:56:04;-4.80;99.90
8043;DHT22;4064;48.132;11.366;2022-12-18T03:58:32;-4.80;99.90
8043;DHT22;4064;48.132;11.366;2022-12-18T04:01:02;-4.80;99.90
8043;DHT22;4064;48.132;11.366;2022-12-18T04:03:29;-4.70;99.90
8043;DHT22;4064;48.132;11.366;2022-12-18T04:05:59;-4.70;99.90
8043;DHT22;4064;48.132;11.366;2022-12-18T04:08:26;-4.70;99.90
8043;DHT22;4064;48.132;11.366;2022-12-18T04:10:52;-4.60;99.90
8043;DHT22;4064;48.132;11.366;2022-12-18T04:13:28;-4.70;99.90
8043;DHT22;4064;48.132;11.366;2022-12-18T04:15:54;-4.80;99.90
8043;DHT22;4064;48.132;11.366;2022-12-18T04:18:20;-4.80;99.90
8043;DHT22;4064;48.132;11.366;2022-12-18T04:20:45;-4.70;99.90
8043;DHT22;4064;48.132;11.366;2022-12-18T04:23:11;-4.80;99.90
8043;DHT22;4064;48.132;11.366;2022-12-18T04:25:37;-4.80;99.90
8043;DHT22;4064;48.132;11.366;2022-12-18T04:28:02;-4.70;99.90
8043;DHT22;4064;48.132;11.366;2022-12-18T04:30:28;-4.70;99.90
8043;DHT22;4064;48.132;11.366;2022-12-18T04:32:53;-4.60;99.90
8043;DHT22;4064;48.132;11.366;2022-12-18T04:35:19;-4.60;99.90
8043;DHT22;4064;48.132;11.366;2022-12-18T04:37:45;-4.60;99.90
8043;DHT22;4064;48.132;11.366;2022-12-18T04:40:11;-4.60;99.90
8043;DHT22;4064;48.132;11.366;2022-12-18T04:42:37;-4.50;99.90
8043;DHT22;4064;48.132;11.366;2022-12-18T04:45:04;-4.50;99.90
8043;DHT22;4064;48.132;11.366;2022-12-18T04:47:30;-4.50;99.90
8043;DHT22;4064;48.132;11.366;2022-12-18T04:49:56;-4.50;99.90
8043;DHT22;4064;48.132;11.366;2022-12-18T04:52:21;-4.50;99.90
8043;DHT22;4064;48.132;11.366;2022-12-18T04:54:47;-4.50;99.90
8043;DHT22;4064;48.132;11.366;2022-12-18T04:57:13;-4.50;99.90
8043;DHT22;4064;48.132;11.366;2022-12-18T04:59:38;-4.50;99.90
8043;DHT22;4064;48.132;11.366;2022-12-18T05:02:04;-4.50;99.90
8043;DHT22;4064;48.132;11.366;2022-12-18T05:04:30;-4.50;99.90
8043;DHT22;4064;48.132;11.366;2022-12-18T05:06:55;-4.40;99.90
8043;DHT22;4064;48.132;11.366;2022-12-18T05:09:21;-4.40;99.90
8043;DHT22;4064;48.132;11.366;2022-12-18T05:11:46;-4.50;99.90
8043;DHT22;4064;48.132;11.366;2022-12-18T05:14:12;-4.50;99.90
8043;DHT22;4064;48.132;11.366;2022-12-18T05:16:37;-4.50;99.90
8043;DHT22;4064;48.132;11.366;2022-12-18T05:19:03;-4.50;99.90
8043;DHT22;4064;48.132;11.366;2022-12-18T05:21:29;-4.60;99.90
8043;DHT22;4064;48.132;11.366;2022-12-18T05:23:54;-4.60;99.90
8043;DHT22;4064;48.132;11.366;2022-12-18T05:26:20;-4.60;99.90
8043;DHT22;4064;48.132;11.366;2022-12-18T05:28:45;-4.60;99.90
8043;DHT22;4064;48.132;11.366;2022-12-18T05:31:11;-4.60;99.90
8043;DHT22;4064;48.132;11.366;2022-12-18T05:33:37;-4.70;99.90
8043;DHT22;4064;48.132;11.366;2022-12-18T05:36:05;-4.60;99.90
8043;DHT22;4064;48.132;11.366;2022-12-18T05:38:32;-4.70;99.90
8043;DHT22;4064;48.132;11.366;2022-12-18T05:40:59;-4.60;99.90
8043;DHT22;4064;48.132;11.366;2022-12-18T05:43:25;-4.60;99.90
8043;DHT22;4064;48.132;11.366;2022-12-18T05:45:52;-4.60;99.90
8043;DHT22;4064;48.132;11.366;2022-12-18T05:48:19;-4.60;99.90
8043;DHT22;4064;48.132;11.366;2022-12-18T05:50:46;-4.60;99.90
8043;DHT22;4064;48.132;11.366;2022-12-18T05:53:14;-4.60;99.90
8043;DHT22;4064;48.132;11.366;2022-12-18T05:55:41;-4.60;99.90
8043;DHT22;4064;48.132;11.366;2022-12-18T05:58:08;-4.60;99.90
8043;DHT22;4064;48.132;11.366;2022-12-18T06:00:36;-4.50;99.90
8043;DHT22;4064;48.132;11.366;2022-12-18T06:03:05;-4.50;99.90
8043;DHT22;4064;48.132;11.366;2022-12-18T06:05:38;-4.50;99.90
8043;DHT22;4064;48.132;11.366;2022-12-18T06:08:04;-4.60;99.90
8043;DHT22;4064;48.132;11.366;2022-12-18T06:10:30;-4.70;99.90
8043;DHT22;4064;48.132;11.366;2022-12-18T06:12:55;-4.80;99.90
8043;DHT22;4064;48.132;11.366;2022-12-18T06:15:21;-4.70;99.90
8043;DHT22;4064;48.132;11.366;2022-12-18T06:17:47;-4.80;99.90
8043;DHT22;4064;48.132;11.366;2022-12-18T06:20:12;-4.80;99.90
8043;DHT22;4064;48.132;11.366;2022-12-18T06:22:38;-4.80;99.90
8043;DHT22;4064;48.132;11.366;2022-12-18T06:25:04;-4.80;99.90
8043;DHT22;4064;48.132;11.366;2022-12-18T06:27:31;-4.80;99.90
8043;DHT22;4064;48.132;11.366;2022-12-18T06:29:59;-4.80;99.90
8043;DHT22;4064;48.132;11.366;2022-12-18T06:32:24;-4.80;99.90
8043;DHT22;4064;48.132;11.366;2022-12-18T06:34:50;-4.80;99.90
8043;DHT22;4064;48.132;11.366;2022-12-18T06:37:15;-4.90;99.90
8043;DHT22;4064;48.132;11.366;2022-12-18T06:39:41;-5.00;99.90
8043;DHT22;4064;48.132;11.366;2022-12-18T06:42:07;-5.10;99.90
8043;DHT22;4064;48.132;11.366;2022-12-18T06:44:32;-5.10;99.90
8043;DHT22;4064;48.132;11.366;2022-12-18T06:46:58;-4.90;99.90
8043;DHT22;4064;48.132;11.366;2022-12-18T06:49:23;-4.90;99.90
8043;DHT22;4064;48.132;11.366;2022-12-18T06:51:49;-5.00;99.90
8043;DHT22;4064;48.132;11.366;2022-12-18T06:54:15;-4.90;99.90
8043;DHT22;4064;48.132;11.366;2022-12-18T06:56:40;-4.90;99.90
8043;DHT22;4064;48.132;11.366;2022-12-18T06:59:06;-4.90;99.90
8043;DHT22;4064;48.132;11.366;2022-12-18T07:01:31;-4.90;99.90
8043;DHT22;4064;48.132;11.366;2022-12-18T07:03:57;-4.80;99.90
8043;DHT22;4064;48.132;11.366;2022-12-18T07:06:24;-4.80;99.90
8043;DHT22;4064;48.132;11.366;2022-12-18T07:08:52;-4.80;99.90
8043;DHT22;4064;48.132;11.366;2022-12-18T07:11:18;-4.70;99.90
8043;DHT22;4064;48.132;11.366;2022-12-18T07:13:44;-4.70;99.90
8043;DHT22;4064;48.132;11.366;2022-12-18T07:16:13;-4.80;99.90
8043;DHT22;4064;48.132;11.366;2022-12-18T07:18:38;-4.80;99.90
8043;DHT22;4064;48.132;11.366;2022-12-18T07:21:06;-4.80;99.90
8043;DHT22;4064;48.132;11.366;2022-12-18T07:23:33;-4.80;99.90
8043;DHT22;4064;48.132;11.366;2022-12-18T07:26:19;-4.80;99.90
8043;DHT22;4064;48.132;11.366;2022-12-18T07:28:45;-4.80;99.90
8043;DHT22;4064;48.132;11.366;2022-12-18T07:31:16;-4.70;99.90
8043;DHT22;4064;48.132;11.366;2022-12-18T07:33:43;-4.70;99.90
8043;DHT22;4064;48.132;11.366;2022-12-18T07:36:09;-4.70;99.90
8043;DHT22;4064;48.132;11.366;2022-12-18T07:38:36;-4.70;99.90
8043;DHT22;4064;48.132;11.366;2022-12-18T07:41:08;-4.70;99.90
8043;DHT22;4064;48.132;11.366;2022-12-18T07:43:34;-4.60;99.90
8043;DHT22;4064;48.132;11.366;2022-12-18T07:46:00;-4.60;99.90
8043;DHT22;4064;48.132;11.366;2022-12-18T07:48:28;-4.60;99.90
8043;DHT22;4064;48.132;11.366;2022-12-18T07:50:58;-4.50;99.90
8043;DHT22;4064;48.132;11.366;2022-12-18T07:53:24;-4.50;99.90
8043;DHT22;4064;48.132;11.366;2022-12-18T07:55:58;-4.40;99.90
8043;DHT22;4064;48.132;11.366;2022-12-18T07:58:24;-4.40;99.90
8043;DHT22;4064;48.132;11.366;2022-12-18T08:00:50;-4.40;99.90
8043;DHT22;4064;48.132;11.366;2022-12-18T08:03:16;-4.40;99.90
8043;DHT22;4064;48.132;11.366;2022-12-18T08:05:42;-4.50;99.90
8043;DHT22;4064;48.132;11.366;2022-12-18T08:08:08;-4.50;99.90
8043;DHT22;4064;48.132;11.366;2022-12-18T08:10:33;-4.40;99.90
8043;DHT22;4064;48.132;11.366;2022-12-18T08:12:59;-4.30;99.90
8043;DHT22;4064;48.132;11.366;2022-12-18T08:15:24;-4.40;99.90
8043;DHT22;4064;48.132;11.366;2022-12-18T08:17:50;-4.30;99.90
8043;DHT22;4064;48.132;11.366;2022-12-18T08:20:16;-4.30;99.90
8043;DHT22;4064;48.132;11.366;2022-12-18T08:22:44;-4.30;99.90
8043;DHT22;4064;48.132;11.366;2022-12-18T08:25:09;-4.30;99.90
8043;DHT22;4064;48.132;11.366;2022-12-18T08:27:35;-4.40;99.90
8043;DHT22;4064;48.132;11.366;2022-12-18T08:30:02;-4.30;99.90
8043;DHT22;4064;48.132;11.366;2022-12-18T08:32:28;-4.30;99.90
8043;DHT22;4064;48.132;11.366;2022-12-18T08:34:54;-4.20;99.90
8043;DHT22;4064;48.132;11.366;2022-12-18T08:37:19;-4.10;99.90
8043;DHT22;4064;48.132;11.366;2022-12-18T08:39:45;-4.10;99.90
8043;DHT22;4064;48.132;11.366;2022-12-18T08:42:10;-4.00;99.90
8043;DHT22;4064;48.132;11.366;2022-12-18T08:44:55;-4.00;99.90
8043;DHT22;4064;48.132;11.366;2022-12-18T08:47:20;-3.90;99.90
8043;DHT22;4064;48.132;11.366;2022-12-18T08:49:46;-4.00;99.90
8043;DHT22;4064;48.132;11.366;2022-12-18T08:52:11;-4.10;99.90
8043;DHT22;4064;48.132;11.366;2022-12-18T08:54:37;-4.00;99.90
8043;DHT22;4064;48.132;11.366;2022-12-18T08:57:03;-4.00;99.90
8043;DHT22;4064;48.132;11.366;2022-12-18T08:59:28;-3.90;99.90
8043;DHT22;4064;48.132;11.366;2022-12-18T09:01:54;-4.00;99.90
8043;DHT22;4064;48.132;11.366;2022-12-18T09:04:20;-4.00;99.90
8043;DHT22;4064;48.132;11.366;2022-12-18T09:06:46;-4.00;99.90
8043;DHT22;4064;48.132;11.366;2022-12-18T09:09:12;-4.00;99.90
8043;DHT22;4064;48.132;11.366;2022-12-18T09:11:38;-3.90;99.90
8043;DHT22;4064;48.132;11.366;2022-12-18T09:14:04;-3.80;99.90
8043;DHT22;4064;48.132;11.366;2022-12-18T09:16:29;-3.80;99.90
8043;DHT22;4064;48.132;11.366;2022-12-18T09:18:57;-3.80;99.90
8043;DHT22;4064;48.132;11.366;2022-12-18T09:21:26;-3.80;99.90
8043;DHT22;4064;48.132;11.366;2022-12-18T09:23:53;-3.70;99.90
8043;DHT22;4064;48.132;11.366;2022-12-18T09:26:20;-3.70;99.90
8043;DHT22;4064;48.132;11.366;2022-12-18T09:28:46;-3.60;99.90
8043;DHT22;4064;48.132;11.366;2022-12-18T09:31:12;-3.70;99.90
8043;DHT22;4064;48.132;11.366;2022-12-18T09:33:38;-3.70;99.90
8043;DHT22;4064;48.132;11.366;2022-12-18T09:36:06;-3.70;99.90
8043;DHT22;4064;48.132;11.366;2022-12-18T09:38:33;-3.70;99.90
8043;DHT22;4064;48.132;11.366;2022-12-18T09:41:48;-3.70;99.90
8043;DHT22;4064;48.132;11.366;2022-12-18T09:46:50;-3.60;99.90
8043;DHT22;4064;48.132;11.366;2022-12-18T09:49:19;-3.50;99.90
8043;DHT22;4064;48.132;11.366;2022-12-18T09:51:53;-3.50;99.90
8043;DHT22;4064;48.132;11.366;2022-12-18T09:54:33;-3.50;99.90
8043;DHT22;4064;48.132;11.366;2022-12-18T09:56:58;-3.50;99.90
8043;DHT22;4064;48.132;11.366;2022-12-18T09:59:29;-3.50;99.90
8043;DHT22;4064;48.132;11.366;2022-12-18T10:01:56;-3.50;99.90
8043;DHT22;4064;48.132;11.366;2022-12-18T10:04:22;-3.50;99.90
8043;DHT22;4064;48.132;11.366;2022-12-18T10:06:57;-3.40;99.90
8043;DHT22;4064;48.132;11.366;2022-12-18T10:09:50;-3.40;99.90
8043;DHT22;4064;48.132;11.366;2022-12-18T10:17:30;-3.50;99.90
8043;DHT22;4064;48.132;11.366;2022-12-18T10:20:09;-3.50;99.90
8043;DHT22;4064;48.132;11.366;2022-12-18T10:25:32;-3.40;99.90
8043;DHT22;4064;48.132;11.366;2022-12-18T10:28:11;-3.30;99.90
8043;DHT22;4064;48.132;11.366;2022-12-18T10:30:38;-3.30;99.90
8043;DHT22;4064;48.132;11.366;2022-12-18T10:33:04;-3.20;99.90
8043;DHT22;4064;48.132;11.366;2022-12-18T10:35:30;-3.20;99.90
8043;DHT22;4064;48.132;11.366;2022-12-18T10:38:07;-3.20;99.90
8043;DHT22;4064;48.132;11.366;2022-12-18T10:43:22;-3.20;99.90
8043;DHT22;4064;48.132;11.366;2022-12-18T10:48:30;-3.30;99.90
8043;DHT22;4064;48.132;11.366;2022-12-18T10:50:56;-3.40;99.90
8043;DHT22;4064;48.132;11.366;2022-12-18T10:53:25;-3.50;99.90
8043;DHT22;4064;48.132;11.366;2022-12-18T10:55:53;-3.50;99.90
8043;DHT22;4064;48.132;11.366;2022-12-18T10:58:25;-3.50;99.90
8043;DHT22;4064;48.132;11.366;2022-12-18T11:08:33;-3.40;99.90
8043;DHT22;4064;48.132;11.366;2022-12-18T11:10:59;-3.30;99.90
8043;DHT22;4064;48.132;11.366;2022-12-18T11:13:27;-3.30;99.90
8043;DHT22;4064;48.132;11.366;2022-12-18T11:15:54;-3.30;99.90
8043;DHT22;4064;48.132;11.366;2022-12-18T11:18:28;-3.30;99.90
8043;DHT22;4064;48.132;11.366;2022-12-18T11:21:15;-3.10;99.90
8043;DHT22;4064;48.132;11.366;2022-12-18T11:23:50;-3.20;99.90
8043;DHT22;4064;48.132;11.366;2022-12-18T11:26:16;-3.20;99.90
8043;DHT22;4064;48.132;11.366;2022-12-18T11:29:08;-3.30;99.90
8043;DHT22;4064;48.132;11.366;2022-12-18T11:31:34;-3.20;99.90
8043;DHT22;4064;48.132;11.366;2022-12-18T11:36:47;-3.10;99.90
8043;DHT22;4064;48.132;11.366;2022-12-18T11:42:17;-3.10;99.90
8043;DHT22;4064;48.132;11.366;2022-12-18T11:44:50;-3.10;99.90
8043;DHT22;4064;48.132;11.366;2022-12-18T11:47:38;-3.10;99.90
8043;DHT22;4064;48.132;11.366;2022-12-18T11:50:16;-3.10;99.90
8043;DHT22;4064;48.132;11.366;2022-12-18T11:52:42;-3.10;99.90
8043;DHT22;4064;48.132;11.366;2022-12-18T11:55:15;-3.10;99.90
8043;DHT22;4064;48.132;11.366;2022-12-18T11:57:57;-3.00;99.90
8043;DHT22;4064;48.132;11.366;2022-12-18T12:00:25;-2.90;99.90
8043;DHT22;4064;48.132;11.366;2022-12-18T12:03:10;-2.90;99.90
8043;DHT22;4064;48.132;11.366;2022-12-18T12:08:41;-3.00;99.90
8043;DHT22;4064;48.132;11.366;2022-12-18T12:16:50;-3.20;99.90
8043;DHT22;4064;48.132;11.366;2022-12-18T12:19:54;-3.30;99.90
8043;DHT22;4064;48.132;11.366;2022-12-18T12:25:17;-3.30;99.90
8043;DHT22;4064;48.132;11.366;2022-12-18T12:27:51;-3.40;99.90
8043;DHT22;4064;48.132;11.366;2022-12-18T12:30:29;-3.40;99.90
8043;DHT22;4064;48.132;11.366;2022-12-18T12:35:32;-3.60;99.90
8043;DHT22;4064;48.132;11.366;2022-12-18T12:38:18;-3.60;99.90
8043;DHT22;4064;48.132;11.366;2022-12-18T12:40:53;-3.50;99.90
8043;DHT22;4064;48.132;11.366;2022-12-18T12:46:10;-3.50;99.90
8043;DHT22;4064;48.132;11.366;2022-12-18T12:51:25;-3.40;99.90
8043;DHT22;4064;48.132;11.366;2022-12-18T12:53:52;-3.30;99.90
8043;DHT22;4064;48.132;11.366;2022-12-18T12:56:20;-3.20;99.90
8043;DHT22;4064;48.132;11.366;2022-12-18T12:59:08;-3.20;99.90
8043;DHT22;4064;48.132;11.366;2022-12-18T13:07:35;-3.10;99.90
8043;DHT22;4064;48.132;11.366;2022-12-18T13:13:09;-3.30;99.90
8043;DHT22;4064;48.132;11.366;2022-12-18T13:15:45;-3.30;99.90
8043;DHT22;4064;48.132;11.366;2022-12-18T13:18:20;-3.40;99.90
8043;DHT22;4064;48.132;11.366;2022-12-18T13:26:00;-3.50;99.90
8043;DHT22;4064;48.132;11.366;2022-12-18T13:34:17;-3.70;99.90
8043;DHT22;4064;48.132;11.366;2022-12-18T13:36:44;-3.80;99.90
8043;DHT22;4064;48.132;11.366;2022-12-18T13:41:42;-3.70;99.90
8043;DHT22;4064;48.132;11.366;2022-12-18T13:44:38;-3.70;99.90
8043;DHT22;4064;48.132;11.366;2022-12-18T13:47:28;-3.70;99.90
8043;DHT22;4064;48.132;11.366;2022-12-18T13:49:57;-3.80;99.90
8043;DHT22;4064;48.132;11.366;2022-12-18T13:52:36;-3.90;99.90
8043;DHT22;4064;48.132;11.366;2022-12-18T13:55:07;-3.90;99.90
8043;DHT22;4064;48.132;11.366;2022-12-18T13:57:39;-4.00;99.90
8043;DHT22;4064;48.132;11.366;2022-12-18T14:00:26;-4.00;99.90
8043;DHT22;4064;48.132;11.366;2022-12-18T14:02:54;-3.90;99.90
8043;DHT22;4064;48.132;11.366;2022-12-18T14:05:36;-3.90;99.90
8043;DHT22;4064;48.132;11.366;2022-12-18T14:08:08;-3.90;99.90
8043;DHT22;4064;48.132;11.366;2022-12-18T14:10:35;-3.90;99.90
8043;DHT22;4064;48.132;11.366;2022-12-18T14:13:08;-3.90;99.90
8043;DHT22;4064;48.132;11.366;2022-12-18T14:15:38;-3.90;99.90
8043;DHT22;4064;48.132;11.366;2022-12-18T14:18:20;-4.00;99.90
8043;DHT22;4064;48.132;11.366;2022-12-18T14:20:48;-4.10;99.90
8043;DHT22;4064;48.132;11.366;2022-12-18T14:26:02;-4.30;99.90
8043;DHT22;4064;48.132;11.366;2022-12-18T14:28:28;-4.20;99.90
8043;DHT22;4064;48.132;11.366;2022-12-18T14:30:54;-4.10;99.90
8043;DHT22;4064;48.132;11.366;2022-12-18T14:33:23;-4.20;99.90
8043;DHT22;4064;48.132;11.366;2022-12-18T14:38:38;-4.20;99.90
8043;DHT22;4064;48.132;11.366;2022-12-18T14:41:08;-4.20;99.90
8043;DHT22;4064;48.132;11.366;2022-12-18T14:43:37;-4.30;99.90
8043;DHT22;4064;48.132;11.366;2022-12-18T14:48:48;-4.30;99.90
8043;DHT22;4064;48.132;11.366;2022-12-18T14:51:27;-4.30;99.90
8043;DHT22;4064;48.132;11.366;2022-12-18T14:53:56;-4.30;99.90
8043;DHT22;4064;48.132;11.366;2022-12-18T14:56:23;-4.20;99.90
8043;DHT22;4064;48.132;11.366;2022-12-18T14:59:00;-4.30;99.90
8043;DHT22;4064;48.132;11.366;2022-12-18T15:01:37;-4.30;99.90
8043;DHT22;4064;48.132;11.366;2022-12-18T15:04:05;-4.30;99.90
8043;DHT22;4064;48.132;11.366;2022-12-18T15:06:48;-4.40;99.90
8043;DHT22;4064;48.132;11.366;2022-12-18T15:09:23;-4.40;99.90
8043;DHT22;4064;48.132;11.366;2022-12-18T15:11:56;-4.50;99.90
8043;DHT22;4064;48.132;11.366;2022-12-18T15:14:34;-4.50;99.90
8043;DHT22;4064;48.132;11.366;2022-12-18T15:17:02;-4.50;99.90
8043;DHT22;4064;48.132;11.366;2022-12-18T15:19:38;-4.50;99.90
8043;DHT22;4064;48.132;11.366;2022-12-18T15:22:27;-4.60;99.90
8043;DHT22;4064;48.132;11.366;2022-12-18T15:24:54;-4.60;99.90
8043;DHT22;4064;48.132;11.366;2022-12-18T15:27:35;-4.50;99.90
8043;DHT22;4064;48.132;11.366;2022-12-18T15:32:38;-4.60;99.90
8043;DHT22;4064;48.132;11.366;2022-12-18T15:37:36;-4.70;99.90
8043;DHT22;4064;48.132;11.366;2022-12-18T15:40:03;-4.70;99.90
8043;DHT22;4064;48.132;11.366;2022-12-18T15:42:29;-4.70;99.90
8043;DHT22;4064;48.132;11.366;2022-12-18T15:45:14;-4.70;99.90
8043;DHT22;4064;48.132;11.366;2022-12-18T15:47:40;-4.70;99.90
8043;DHT22;4064;48.132;11.366;2022-12-18T15:50:07;-4.70;99.90
8043;DHT22;4064;48.132;11.366;2022-12-18T15:52:40;-4.70;99.90
8043;DHT22;4064;48.132;11.366;2022-12-18T15:55:24;-4.80;99.90
8043;DHT22;4064;48.132;11.366;2022-12-18T15:58:10;-4.80;99.90
8043;DHT22;4064;48.132;11.366;2022-12-18T16:00:38;-4.70;99.90
8043;DHT22;4064;48.132;11.366;2022-12-18T16:03:04;-4.60;99.90
8043;DHT22;4064;48.132;11.366;2022-12-18T16:05:31;-4.60;99.90
8043;DHT22;4064;48.132;11.366;2022-12-18T16:07:56;-4.60;99.90
8043;DHT22;4064;48.132;11.366;2022-12-18T16:10:22;-4.60;99.90
8043;DHT22;4064;48.132;11.366;2022-12-18T16:12:49;-4.60;99.90
8043;DHT22;4064;48.132;11.366;2022-12-18T16:15:15;-4.60;99.90
8043;DHT22;4064;48.132;11.366;2022-12-18T16:17:45;-4.60;99.90
8043;DHT22;4064;48.132;11.366;2022-12-18T16:20:16;-4.60;99.90
8043;DHT22;4064;48.132;11.366;2022-12-18T16:22:43;-4.70;99.90
8043;DHT22;4064;48.132;11.366;2022-12-18T16:25:24;-4.70;99.90
8043;DHT22;4064;48.132;11.366;2022-12-18T16:27:50;-4.80;99.90
8043;DHT22;4064;48.132;11.366;2022-12-18T16:30:19;-4.70;99.90
8043;DHT22;4064;48.132;11.366;2022-12-18T16:32:45;-4.80;99.90
8043;DHT22;4064;48.132;11.366;2022-12-18T16:35:14;-4.80;99.90
8043;DHT22;4064;48.132;11.366;2022-12-18T16:37:40;-4.80;99.90
8043;DHT22;4064;48.132;11.366;2022-12-18T16:40:12;-4.70;99.90
8043;DHT22;4064;48.132;11.366;2022-12-18T16:42:40;-4.70;99.90
8043;DHT22;4064;48.132;11.366;2022-12-18T16:45:07;-4.70;99.90
8043;DHT22;4064;48.132;11.366;2022-12-18T16:47:33;-4.70;99.90
8043;DHT22;4064;48.132;11.366;2022-12-18T16:49:59;-4.80;99.90
8043;DHT22;4064;48.132;11.366;2022-12-18T16:52:25;-4.80;99.90
8043;DHT22;4064;48.132;11.366;2022-12-18T16:54:50;-4.80;99.90
8043;DHT22;4064;48.132;11.366;2022-12-18T16:57:18;-4.80;99.90
8043;DHT22;4064;48.132;11.366;2022-12-18T16:59:44;-4.80;99.90
8043;DHT22;4064;48.132;11.366;2022-12-18T17:02:13;-4.80;99.90
8043;DHT22;4064;48.132;11.366;2022-12-18T17:04:40;-4.80;99.90
8043;DHT22;4064;48.132;11.366;2022-12-18T17:07:06;-4.70;99.90
8043;DHT22;4064;48.132;11.366;2022-12-18T17:09:32;-4.80;99.90
8043;DHT22;4064;48.132;11.366;2022-12-18T17:11:58;-4.80;99.90
8043;DHT22;4064;48.132;11.366;2022-12-18T17:14:25;-4.90;99.90
8043;DHT22;4064;48.132;11.366;2022-12-18T17:16:52;-4.90;99.90
8043;DHT22;4064;48.132;11.366;2022-12-18T17:19:18;-4.90;99.90
8043;DHT22;4064;48.132;11.366;2022-12-18T17:21:47;-5.00;99.90
8043;DHT22;4064;48.132;11.366;2022-12-18T17:24:12;-4.90;99.90
8043;DHT22;4064;48.132;11.366;2022-12-18T17:26:38;-4.90;99.90
8043;DHT22;4064;48.132;11.366;2022-12-18T17:29:04;-4.90;99.90
8043;DHT22;4064;48.132;11.366;2022-12-18T17:31:30;-4.90;99.90
8043;DHT22;4064;48.132;11.366;2022-12-18T17:33:56;-4.90;99.90
8043;DHT22;4064;48.132;11.366;2022-12-18T17:36:23;-4.90;99.90
8043;DHT22;4064;48.132;11.366;2022-12-18T17:38:53;-5.00;99.90
8043;DHT22;4064;48.132;11.366;2022-12-18T17:41:19;-5.10;99.90
8043;DHT22;4064;48.132;11.366;2022-12-18T17:43:52;-5.20;99.90
8043;DHT22;4064;48.132;11.366;2022-12-18T17:46:18;-5.10;99.90
8043;DHT22;4064;48.132;11.366;2022-12-18T17:48:44;-5.20;99.90
8043;DHT22;4064;48.132;11.366;2022-12-18T17:51:11;-5.20;99.90
8043;DHT22;4064;48.132;11.366;2022-12-18T17:53:37;-5.10;99.90
8043;DHT22;4064;48.132;11.366;2022-12-18T17:56:04;-5.10;99.90